createdAt,value
2019-01-09T00:01:00.028Z,4.76
2019-01-09T00:03:25.974Z,4.77
2019-01-09T00:05:51.998Z,4.77
2019-01-09T00:08:19.987Z,4.76
2019-01-09T00:10:47.834Z,4.71
2019-01-09T00:13:13.943Z,4.69
2019-01-09T00:15:41.659Z,4.66
2019-01-09T00:18:07.599Z,4.64
2019-01-09T00:20:33.665Z,4.64
2019-01-09T00:23:00.337Z,4.63
2019-01-09T00:25:26.494Z,4.59
2019-01-09T00:27:52.856Z,4.59
2019-01-09T00:30:20.181Z,4.62
2019-01-09T00:32:46.238Z,4.62
2019-01-09T00:35:12.358Z,4.61
2019-01-09T00:37:39.360Z,4.61
2019-01-09T00:40:06.900Z,4.62
2019-01-09T00:42:32.939Z,4.64
2019-01-09T00:44:58.912Z,4.61
2019-01-09T00:47:25.874Z,4.58
2019-01-09T00:49:52.617Z,4.56
2019-01-09T00:52:18.729Z,4.55
2019-01-09T00:54:44.673Z,4.54
2019-01-09T00:57:10.632Z,4.55
2019-01-09T00:59:36.813Z,4.55
2019-01-09T01:02:13.616Z,4.55
2019-01-09T01:04:58.320Z,4.56
2019-01-09T01:07:36.701Z,4.56
2019-01-09T01:10:34.046Z,4.56
2019-01-09T01:13:06.801Z,4.55
2019-01-09T01:16:11.065Z,4.56
2019-01-09T01:18:49.975Z,4.56
2019-01-09T01:21:25.191Z,4.55
2019-01-09T01:24:24.947Z,4.55
2019-01-09T01:27:00.673Z,4.52
2019-01-09T01:29:45.820Z,4.50
2019-01-09T01:32:21.397Z,4.51
2019-01-09T01:35:24.890Z,4.50
2019-01-09T01:38:00.820Z,4.51
2019-01-09T01:40:46.020Z,4.50
2019-01-09T01:43:25.630Z,4.49
2019-01-09T01:46:04.623Z,4.50
2019-01-09T01:48:46.527Z,4.49
2019-01-09T01:51:22.144Z,4.50
2019-01-09T01:53:57.542Z,4.49
2019-01-09T01:56:30.104Z,4.49
2019-01-09T01:58:59.924Z,4.51
2019-01-09T02:01:29.674Z,4.49
2019-01-09T02:04:11.475Z,4.49
2019-01-09T02:06:44.260Z,4.49
2019-01-09T02:09:20.246Z,4.49
2019-01-09T02:11:55.644Z,4.50
2019-01-09T02:14:37.107Z,4.51
2019-01-09T02:17:12.417Z,4.51
2019-01-09T02:19:44.986Z,4.51
2019-01-09T02:22:49.887Z,4.52
2019-01-09T02:25:37.594Z,4.54
2019-01-09T02:28:25.530Z,4.53
2019-01-09T02:31:13.490Z,4.51
2019-01-09T02:33:39.687Z,4.50
2019-01-09T02:36:13.237Z,4.49
2019-01-09T02:38:35.129Z,4.49
2019-01-09T02:41:01.070Z,4.47
2019-01-09T02:43:27.977Z,4.47
2019-01-09T02:45:53.939Z,4.48
2019-01-09T02:48:19.859Z,4.47
2019-01-09T02:50:47.023Z,4.45
2019-01-09T02:53:13.664Z,4.44
2019-01-09T02:55:40.486Z,4.46
2019-01-09T02:58:06.769Z,4.45
2019-01-09T03:00:32.864Z,4.42
2019-01-09T03:02:58.798Z,4.40
2019-01-09T03:05:24.745Z,4.41
2019-01-09T03:07:50.820Z,4.40
2019-01-09T03:10:16.757Z,4.39
2019-01-09T03:12:43.092Z,4.39
2019-01-09T03:15:09.200Z,4.40
2019-01-09T03:17:35.249Z,4.39
2019-01-09T03:20:01.396Z,4.39
2019-01-09T03:22:27.482Z,4.39
2019-01-09T03:24:53.432Z,4.38
2019-01-09T03:27:19.379Z,4.38
2019-01-09T03:29:45.365Z,4.36
2019-01-09T03:32:13.391Z,4.37
2019-01-09T03:34:40.335Z,4.39
2019-01-09T03:37:06.370Z,4.41
2019-01-09T03:39:32.316Z,4.42
2019-01-09T03:41:58.378Z,4.42
2019-01-09T03:44:24.356Z,4.44
2019-01-09T03:46:50.428Z,4.44
2019-01-09T03:49:16.560Z,4.43
2019-01-09T03:51:42.611Z,4.46
2019-01-09T03:54:08.561Z,4.46
2019-01-09T03:56:34.501Z,4.47
2019-01-09T03:59:00.909Z,4.48
2019-01-09T04:01:27.277Z,4.50
2019-01-09T04:03:53.695Z,4.49
2019-01-09T04:06:19.678Z,4.48
2019-01-09T04:08:46.520Z,4.48
2019-01-09T04:11:12.471Z,4.48
2019-01-09T04:13:39.295Z,4.47
2019-01-09T04:16:05.844Z,4.47
2019-01-09T04:18:31.905Z,4.47
2019-01-09T04:20:58.181Z,4.46
2019-01-09T04:23:24.127Z,4.47
2019-01-09T04:25:50.084Z,4.47
2019-01-09T04:28:16.067Z,4.47
2019-01-09T04:30:42.024Z,4.49
2019-01-09T04:33:08.664Z,4.49
2019-01-09T04:35:34.836Z,4.50
2019-01-09T04:38:00.780Z,4.52
2019-01-09T04:40:26.733Z,4.52
2019-01-09T04:42:52.750Z,4.53
2019-01-09T04:45:18.698Z,4.54
2019-01-09T04:47:44.657Z,4.55
2019-01-09T04:50:10.637Z,4.54
2019-01-09T04:52:37.087Z,4.53
2019-01-09T04:55:04.236Z,4.52
2019-01-09T04:57:30.220Z,4.52
2019-01-09T04:59:56.167Z,4.51
2019-01-09T05:02:22.827Z,4.51
2019-01-09T05:04:49.423Z,4.50
2019-01-09T05:07:15.689Z,4.49
2019-01-09T05:09:41.635Z,4.48
2019-01-09T05:12:07.617Z,4.47
2019-01-09T05:14:34.937Z,4.45
2019-01-09T05:17:01.001Z,4.45
2019-01-09T05:19:26.981Z,4.43
2019-01-09T05:21:52.913Z,4.44
2019-01-09T05:24:18.853Z,4.42
2019-01-09T05:26:46.784Z,4.43
2019-01-09T05:29:12.723Z,4.42
2019-01-09T05:31:38.671Z,4.42
2019-01-09T05:34:04.659Z,4.42
2019-01-09T05:36:30.670Z,4.44
2019-01-09T05:38:57.051Z,4.45
2019-01-09T05:41:23.330Z,4.44
2019-01-09T05:43:49.874Z,4.44
2019-01-09T05:46:15.837Z,4.44
2019-01-09T05:48:41.782Z,4.43
2019-01-09T05:51:07.885Z,4.42
2019-01-09T05:53:34.021Z,4.40
2019-01-09T05:55:59.962Z,4.39
2019-01-09T05:58:26.510Z,4.39
2019-01-09T06:00:52.996Z,4.39
2019-01-09T06:03:19.336Z,4.37
2019-01-09T06:05:45.982Z,4.37
2019-01-09T06:08:13.599Z,4.34
2019-01-09T06:10:39.639Z,4.31
2019-01-09T06:13:06.384Z,4.30
2019-01-09T06:15:32.373Z,4.29
2019-01-09T06:17:58.633Z,4.28
2019-01-09T06:20:24.775Z,4.26
2019-01-09T06:22:50.810Z,4.27
2019-01-09T06:25:16.763Z,4.23
2019-01-09T06:27:42.706Z,4.22
2019-01-09T06:30:10.013Z,4.22
2019-01-09T06:32:36.095Z,4.21
2019-01-09T06:35:02.042Z,4.21
2019-01-09T06:37:28.082Z,4.19
2019-01-09T06:39:55.137Z,4.17
2019-01-09T06:42:21.073Z,4.16
2019-01-09T06:44:47.055Z,4.13
2019-01-09T06:47:12.993Z,4.11
2019-01-09T06:49:38.931Z,4.10
2019-01-09T06:52:04.943Z,4.10
2019-01-09T06:54:31.275Z,4.08
2019-01-09T06:56:57.187Z,4.06
2019-01-09T06:59:23.582Z,4.07
2019-01-09T07:01:49.827Z,4.09
2019-01-09T07:04:15.759Z,4.11
2019-01-09T07:06:41.738Z,4.11
2019-01-09T07:09:07.700Z,4.12
2019-01-09T07:11:33.638Z,4.13
2019-01-09T07:14:00.089Z,4.12
2019-01-09T07:16:26.068Z,4.12
2019-01-09T07:18:52.027Z,4.08
2019-01-09T07:21:18.014Z,4.08
2019-01-09T07:23:43.955Z,4.07
2019-01-09T07:26:09.889Z,4.06
2019-01-09T07:28:35.948Z,4.06
2019-01-09T07:31:02.035Z,4.07
2019-01-09T07:33:27.987Z,4.08
2019-01-09T07:35:54.077Z,4.11
2019-01-09T07:38:20.025Z,4.12
2019-01-09T07:40:46.875Z,4.14
2019-01-09T07:43:12.845Z,4.16
2019-01-09T07:45:38.807Z,4.17
2019-01-09T07:48:04.823Z,4.18
2019-01-09T07:50:30.843Z,4.19
2019-01-09T07:52:56.782Z,4.21
2019-01-09T07:55:23.285Z,4.23
2019-01-09T07:57:49.993Z,4.23
2019-01-09T08:00:15.952Z,4.23
2019-01-09T08:02:41.897Z,4.26
2019-01-09T08:05:08.092Z,4.26
2019-01-09T08:07:34.039Z,4.26
2019-01-09T08:10:01.176Z,4.27
2019-01-09T08:12:27.158Z,4.27
2019-01-09T08:14:53.104Z,4.27
2019-01-09T08:17:20.949Z,4.27
2019-01-09T08:19:46.956Z,4.24
2019-01-09T08:22:12.902Z,4.24
2019-01-09T08:24:38.861Z,4.23
2019-01-09T08:27:04.840Z,4.22
2019-01-09T08:29:30.772Z,4.21
2019-01-09T08:31:56.790Z,4.21
2019-01-09T08:34:22.820Z,4.23
2019-01-09T08:36:48.765Z,4.24
2019-01-09T08:39:14.771Z,4.23
2019-01-09T08:41:41.125Z,4.22
2019-01-09T08:44:07.063Z,4.21
2019-01-09T08:46:34.309Z,4.22
2019-01-09T08:49:00.358Z,4.23
2019-01-09T08:51:26.360Z,4.23
2019-01-09T08:53:54.019Z,4.26
2019-01-09T08:56:21.002Z,4.28
2019-01-09T08:58:47.345Z,4.30
2019-01-09T09:01:13.284Z,4.31
2019-01-09T09:03:40.697Z,4.32
2019-01-09T09:06:06.740Z,4.32
2019-01-09T09:08:32.977Z,4.32
2019-01-09T09:10:58.963Z,4.33
2019-01-09T09:13:35.262Z,4.34
2019-01-09T09:16:01.349Z,4.31
2019-01-09T09:18:27.604Z,4.32
2019-01-09T09:20:53.538Z,4.31
2019-01-09T09:23:19.568Z,4.31
2019-01-09T09:25:47.412Z,4.29
2019-01-09T09:28:13.532Z,4.28
2019-01-09T09:30:39.816Z,4.27
2019-01-09T09:33:06.852Z,4.24
2019-01-09T09:35:34.695Z,4.23
2019-01-09T09:38:00.676Z,4.22
2019-01-09T09:40:28.520Z,4.21
2019-01-09T09:42:54.456Z,4.20
2019-01-09T09:45:21.072Z,4.18
2019-01-09T09:47:47.446Z,4.19
2019-01-09T09:50:15.795Z,4.19
2019-01-09T09:52:41.782Z,4.18
2019-01-09T09:55:12.980Z,4.17
2019-01-09T09:57:36.533Z,4.16
2019-01-09T10:00:05.587Z,4.14
2019-01-09T10:02:31.565Z,4.13
2019-01-09T10:04:57.500Z,4.12
2019-01-09T10:07:24.206Z,4.09
2019-01-09T10:09:50.543Z,4.06
2019-01-09T10:12:16.487Z,4.04
2019-01-09T10:14:42.487Z,4.03
2019-01-09T10:17:10.324Z,4.02
2019-01-09T10:19:36.265Z,4.02
2019-01-09T10:22:04.364Z,4.00
2019-01-09T10:24:30.305Z,3.98
2019-01-09T10:26:58.148Z,3.96
2019-01-09T10:29:24.150Z,3.97
2019-01-09T10:31:50.088Z,3.97
2019-01-09T10:34:16.031Z,3.96
2019-01-09T10:36:42.222Z,3.98
2019-01-09T10:39:08.761Z,3.95
2019-01-09T10:41:34.699Z,3.95
2019-01-09T10:44:02.700Z,3.96
2019-01-09T10:46:28.695Z,3.95
2019-01-09T10:48:54.733Z,3.95
2019-01-09T10:51:20.733Z,3.95
2019-01-09T10:53:46.682Z,3.95
2019-01-09T10:56:13.321Z,3.97
2019-01-09T10:58:39.469Z,3.97
2019-01-09T11:01:05.403Z,3.99
2019-01-09T11:03:31.355Z,3.99
2019-01-09T11:05:57.339Z,3.94
2019-01-09T11:08:23.782Z,3.98
2019-01-09T11:10:49.720Z,3.98
2019-01-09T11:13:16.317Z,3.96
2019-01-09T11:15:42.250Z,3.96
2019-01-09T11:18:09.596Z,3.96
2019-01-09T11:20:35.567Z,3.98
2019-01-09T11:23:01.526Z,3.96
2019-01-09T11:25:27.528Z,3.95
2019-01-09T11:27:53.532Z,3.93
2019-01-09T11:30:19.874Z,3.98
2019-01-09T11:32:47.918Z,3.94
2019-01-09T11:35:16.236Z,3.92
2019-01-09T11:37:42.181Z,3.91
2019-01-09T11:40:11.229Z,3.85
2019-01-09T11:42:37.213Z,3.83
2019-01-09T11:45:06.656Z,3.83
2019-01-09T11:47:32.604Z,3.82
2019-01-09T11:49:58.586Z,3.79
2019-01-09T11:52:24.532Z,3.80
2019-01-09T11:54:50.681Z,3.82
2019-01-09T11:57:16.678Z,3.84
2019-01-09T11:59:42.696Z,3.84
2019-01-09T12:02:08.635Z,3.84
2019-01-09T12:04:36.523Z,3.84
2019-01-09T12:07:02.587Z,3.86
2019-01-09T12:09:30.138Z,3.89
2019-01-09T12:11:56.129Z,3.87
2019-01-09T12:14:22.075Z,3.87
2019-01-09T12:16:48.018Z,3.87
2019-01-09T12:19:14.125Z,3.86
2019-01-09T12:21:41.995Z,3.86
2019-01-09T12:24:07.955Z,3.87
2019-01-09T12:26:33.940Z,3.89
2019-01-09T12:28:59.880Z,3.90
2019-01-09T12:31:26.352Z,3.95
2019-01-09T12:33:53.072Z,3.95
2019-01-09T12:36:19.021Z,3.94
2019-01-09T12:38:49.825Z,3.93
2019-01-09T12:41:21.319Z,3.94
2019-01-09T12:44:00.758Z,3.93
2019-01-09T12:46:28.653Z,3.92
2019-01-09T12:48:54.928Z,3.91
2019-01-09T12:51:21.314Z,3.91
2019-01-09T12:53:48.269Z,3.89
2019-01-09T12:56:14.352Z,3.90
2019-01-09T12:58:40.290Z,3.92
2019-01-09T13:01:08.185Z,3.92
2019-01-09T13:03:34.959Z,3.91
2019-01-09T13:06:01.439Z,3.93
2019-01-09T13:08:27.416Z,3.92
2019-01-09T13:10:53.363Z,3.93
2019-01-09T13:13:19.999Z,3.95
2019-01-09T13:15:45.976Z,3.96
2019-01-09T13:18:12.031Z,3.97
2019-01-09T13:20:37.970Z,3.97
2019-01-09T13:23:03.986Z,3.97
2019-01-09T13:25:31.837Z,4.00
2019-01-09T13:27:57.787Z,4.01
2019-01-09T13:30:25.176Z,4.01
2019-01-09T13:32:52.839Z,4.00
2019-01-09T13:35:18.801Z,4.00
2019-01-09T13:37:45.088Z,4.00
2019-01-09T13:40:14.051Z,3.98
2019-01-09T13:42:39.995Z,3.98
2019-01-09T13:45:11.200Z,3.96
2019-01-09T13:47:40.047Z,3.97
2019-01-09T13:50:09.336Z,3.99
2019-01-09T13:52:36.452Z,3.99
2019-01-09T13:55:04.479Z,3.99
2019-01-09T13:57:32.539Z,3.99
2019-01-09T13:59:58.783Z,4.00
2019-01-09T14:02:25.067Z,4.00
2019-01-09T14:04:51.243Z,3.99
2019-01-09T14:07:18.127Z,3.95
2019-01-09T14:09:44.502Z,3.94
2019-01-09T14:12:10.550Z,3.93
2019-01-09T14:14:36.704Z,3.93
2019-01-09T14:17:02.729Z,3.91
2019-01-09T14:19:28.915Z,3.90
2019-01-09T14:21:55.075Z,3.90
2019-01-09T14:24:21.916Z,3.90
2019-01-09T14:26:47.871Z,3.90
2019-01-09T14:29:14.166Z,3.92
2019-01-09T14:31:40.130Z,3.93
2019-01-09T14:34:06.090Z,3.92
2019-01-09T14:36:32.119Z,3.93
2019-01-09T14:39:00.288Z,3.96
2019-01-09T14:41:26.240Z,3.95
2019-01-09T14:43:52.245Z,3.94
2019-01-09T14:46:18.282Z,3.95
2019-01-09T14:48:45.162Z,3.96
2019-01-09T14:51:11.469Z,3.96
2019-01-09T14:53:37.417Z,3.95
2019-01-09T14:56:03.458Z,3.93
2019-01-09T14:58:29.442Z,3.90
2019-01-09T15:00:55.385Z,3.86
2019-01-09T15:03:22.307Z,3.81
2019-01-09T15:05:48.299Z,3.78
2019-01-09T15:08:14.240Z,3.76
2019-01-09T15:10:40.201Z,3.75
2019-01-09T15:13:08.664Z,3.72
2019-01-09T15:15:34.708Z,3.71
2019-01-09T15:18:00.652Z,3.72
2019-01-09T15:20:26.643Z,3.74
2019-01-09T15:22:53.188Z,3.74
2019-01-09T15:25:19.132Z,3.76
2019-01-09T15:27:45.719Z,3.76
2019-01-09T15:30:20.847Z,3.76
2019-01-09T15:32:46.890Z,3.77
2019-01-09T15:35:13.291Z,3.78
2019-01-09T15:37:39.232Z,3.77
2019-01-09T15:40:08.999Z,3.77
2019-01-09T15:42:35.427Z,3.76
2019-01-09T15:45:01.840Z,3.75
2019-01-09T15:47:28.207Z,3.73
2019-01-09T15:49:54.710Z,3.72
2019-01-09T15:52:21.803Z,3.72
2019-01-09T15:54:50.762Z,3.71
2019-01-09T15:57:19.993Z,3.69
2019-01-09T15:59:45.959Z,3.67
2019-01-09T16:02:12.138Z,3.67
2019-01-09T16:04:38.808Z,3.64
2019-01-09T16:07:09.184Z,3.63
2019-01-09T16:09:35.482Z,3.58
2019-01-09T16:12:01.501Z,3.58
2019-01-09T16:14:27.657Z,3.56
2019-01-09T16:16:54.510Z,3.55
2019-01-09T16:19:21.928Z,3.53
2019-01-09T16:21:48.112Z,3.52
2019-01-09T16:24:15.126Z,3.52
2019-01-09T16:26:41.209Z,3.52
2019-01-09T16:29:07.149Z,3.50
2019-01-09T16:31:33.613Z,3.50
2019-01-09T16:33:59.733Z,3.50
2019-01-09T16:36:25.990Z,3.51
2019-01-09T16:38:52.689Z,3.51
2019-01-09T16:41:19.294Z,3.51
2019-01-09T16:43:45.254Z,3.53
2019-01-09T16:46:11.209Z,3.53
2019-01-09T16:48:37.306Z,3.52
2019-01-09T16:51:03.483Z,3.50
2019-01-09T16:56:38.883Z,3.50
2019-01-09T16:59:04.850Z,3.49
2019-01-09T17:01:32.613Z,3.50
2019-01-09T17:03:59.815Z,3.50
2019-01-09T17:06:25.863Z,3.50
2019-01-09T17:08:52.110Z,3.52
2019-01-09T17:11:18.252Z,3.51
2019-01-09T17:13:46.517Z,3.52
2019-01-09T17:16:12.452Z,3.52
2019-01-09T17:18:38.480Z,3.53
2019-01-09T17:21:04.922Z,3.54
2019-01-09T17:23:30.863Z,3.54
2019-01-09T17:25:56.843Z,3.55
2019-01-09T17:28:22.889Z,3.55
2019-01-09T17:30:48.859Z,3.56
2019-01-09T17:33:14.886Z,3.58
2019-01-09T17:35:40.931Z,3.58
2019-01-09T17:38:07.022Z,3.58
2019-01-09T17:40:41.003Z,3.60
2019-01-09T17:43:01.742Z,3.61
2019-01-09T17:45:27.720Z,3.63
2019-01-09T17:47:53.716Z,3.65
2019-01-09T17:50:23.101Z,3.67
2019-01-09T17:52:50.233Z,3.68
2019-01-09T17:55:16.460Z,3.69
2019-01-09T17:57:42.986Z,3.71
2019-01-09T18:00:19.496Z,3.75
2019-01-09T18:02:45.622Z,3.76
2019-01-09T18:05:12.264Z,3.77
2019-01-09T18:07:38.521Z,3.77
2019-01-09T18:10:13.876Z,3.78
2019-01-09T18:12:40.018Z,3.78
2019-01-09T18:15:06.664Z,3.77
2019-01-09T18:17:33.064Z,3.77
2019-01-09T18:19:59.381Z,3.77
2019-01-09T18:22:25.334Z,3.78
2019-01-09T18:24:51.311Z,3.79
2019-01-09T18:27:17.455Z,3.80
2019-01-09T18:29:45.559Z,3.81
2019-01-09T18:32:15.877Z,3.82
2019-01-09T18:34:43.176Z,3.84
2019-01-09T18:37:28.625Z,3.84
2019-01-09T18:40:18.977Z,3.97
2019-01-09T18:42:54.353Z,4.12
2019-01-09T18:45:44.204Z,4.13
2019-01-09T18:48:28.826Z,4.08
2019-01-09T18:51:03.835Z,4.04
2019-01-09T18:53:30.193Z,4.00
2019-01-09T18:55:56.136Z,3.97
2019-01-09T18:58:22.348Z,3.97
2019-01-09T19:00:48.990Z,3.96
2019-01-09T19:03:15.381Z,3.98
2019-01-09T19:05:41.371Z,3.98
2019-01-09T19:08:09.060Z,3.99
2019-01-09T19:10:35.142Z,3.97
2019-01-09T19:13:01.121Z,3.97
2019-01-09T19:15:27.121Z,3.97
2019-01-09T19:17:53.074Z,3.96
2019-01-09T19:20:19.327Z,3.97
2019-01-09T19:22:46.201Z,4.02
2019-01-09T19:25:16.414Z,4.02
2019-01-09T19:27:43.204Z,4.04
2019-01-09T19:30:16.217Z,4.04
2019-01-09T19:32:53.828Z,4.02
2019-01-09T19:35:31.886Z,4.00
2019-01-09T19:38:01.030Z,3.99
2019-01-09T19:40:29.723Z,3.97
2019-01-09T19:42:55.956Z,3.97
2019-01-09T19:45:21.985Z,3.97
2019-01-09T19:47:48.355Z,3.95
2019-01-09T19:50:18.226Z,3.95
2019-01-09T19:52:44.802Z,3.93
2019-01-09T19:55:14.510Z,3.90
2019-01-09T19:57:43.407Z,3.87
2019-01-09T20:00:21.507Z,3.82
2019-01-09T20:02:47.559Z,3.82
2019-01-09T20:05:14.514Z,3.82
2019-01-09T20:14:22.764Z,3.83
2019-01-09T20:16:49.430Z,3.82
2019-01-09T20:19:15.493Z,3.82
2019-01-09T20:21:42.911Z,3.83
2019-01-09T20:24:09.581Z,3.84
2019-01-09T20:26:40.639Z,3.85
2019-01-09T20:29:06.642Z,3.86
2019-01-09T20:31:32.926Z,3.94
2019-01-09T20:33:58.884Z,4.11
2019-01-09T20:36:25.306Z,4.14
2019-01-09T20:38:51.292Z,4.11
2019-01-09T20:41:17.244Z,4.08
2019-01-09T20:43:43.509Z,4.08
2019-01-09T20:46:09.494Z,4.07
2019-01-09T20:48:35.824Z,4.05
2019-01-09T20:51:02.081Z,4.03
2019-01-09T20:53:28.645Z,4.01
2019-01-09T20:55:54.734Z,3.99
2019-01-09T20:58:20.749Z,3.97
2019-01-09T21:00:47.065Z,3.96
2019-01-09T21:03:13.471Z,3.94
2019-01-09T21:05:40.307Z,3.94
2019-01-09T21:08:06.799Z,3.92
2019-01-09T21:10:32.715Z,3.90
2019-01-09T21:12:58.834Z,3.90
2019-01-09T21:15:25.409Z,3.88
2019-01-09T21:17:51.807Z,3.90
2019-01-09T21:20:21.271Z,3.99
2019-01-09T21:22:48.656Z,4.08
2019-01-09T21:25:16.014Z,4.08
2019-01-09T21:27:42.931Z,4.06
2019-01-09T21:30:12.575Z,4.02
2019-01-09T21:32:38.636Z,3.98
2019-01-09T21:35:08.059Z,3.96
2019-01-09T21:37:34.009Z,3.95
2019-01-09T21:39:59.947Z,3.93
2019-01-09T21:42:25.931Z,3.91
2019-01-09T21:44:51.971Z,3.87
2019-01-09T21:47:17.910Z,3.83
2019-01-09T21:49:44.527Z,3.82
2019-01-09T21:52:10.682Z,3.80
2019-01-09T21:54:36.622Z,3.80
2019-01-09T21:57:02.613Z,3.79
2019-01-09T21:59:28.651Z,3.79
2019-01-09T22:01:55.088Z,3.78
2019-01-09T22:04:21.078Z,3.75
2019-01-09T22:06:47.018Z,3.74
2019-01-09T22:09:13.086Z,3.74
2019-01-09T22:11:39.291Z,3.74
2019-01-09T22:14:05.258Z,3.74
2019-01-09T22:16:31.508Z,3.74
2019-01-09T22:18:57.619Z,3.75
2019-01-09T22:21:23.592Z,3.76
2019-01-09T22:23:49.617Z,3.75
2019-01-09T22:26:17.882Z,3.75
2019-01-09T22:28:44.239Z,3.76
2019-01-09T22:31:13.884Z,3.74
2019-01-09T22:33:40.081Z,3.75
2019-01-09T22:36:06.012Z,3.74
2019-01-09T22:38:32.231Z,3.73
2019-01-09T22:40:58.237Z,3.72
2019-01-09T22:43:24.215Z,3.72
2019-01-09T22:45:50.254Z,3.83
2019-01-09T22:48:16.443Z,3.98
2019-01-09T22:50:42.382Z,3.96
2019-01-09T22:53:08.454Z,3.93
2019-01-09T22:55:34.470Z,3.88
2019-01-09T22:58:00.428Z,3.85
2019-01-09T23:00:32.094Z,3.83
2019-01-09T23:02:58.881Z,3.81
2019-01-09T23:05:25.155Z,3.80
2019-01-09T23:07:51.788Z,3.77
2019-01-09T23:10:17.777Z,3.76
2019-01-09T23:12:43.747Z,3.72
2019-01-09T23:15:11.065Z,3.72
2019-01-09T23:17:37.726Z,3.71
2019-01-09T23:20:07.502Z,3.69
2019-01-09T23:22:33.563Z,3.67
2019-01-09T23:24:59.551Z,3.65
2019-01-09T23:27:25.626Z,3.63
2019-01-09T23:29:51.581Z,3.60
2019-01-09T23:32:17.870Z,3.57
2019-01-09T23:34:43.829Z,3.54
2019-01-09T23:37:09.811Z,3.52
2019-01-09T23:39:35.901Z,3.49
2019-01-09T23:42:02.029Z,3.47
2019-01-09T23:44:27.976Z,3.47
2019-01-09T23:46:53.995Z,3.45
2019-01-09T23:49:20.755Z,3.43
2019-01-09T23:51:48.618Z,3.42
2019-01-09T23:54:17.021Z,3.42
2019-01-09T23:56:43.467Z,3.41
2019-01-09T23:59:09.415Z,3.41
